»·PEaware :: N283DE KSLC-KPHX

N283DE :: KSLC-KPHX

FLIGHT INFORMATION

Flight Status: Arrived
Operator: Privately registered:
United States
More flights under this callsign
Pilot: Anonymous 16342 (16342)
Aircraft: Unknown
(PC24)
More flights by this aircraft type
Origin: KSLC Salt Lake City Intl
United States
Destination: KPHX Phoenix Sky Harbor Intl
United States
More flights between these airports :: More routes between these airports
Route: +ZIONZ1 BCE J11 CORKR TENTS BRUSR1
File this flight plan on PilotEdge
Remarks:
Altitude:
(Current/Filed)
37,000ft
Speed:
(Current/Filed)
401kts
Departed: 15-May-19 08:30 AM
Arrived: 15-May-19 09:46 AM
Distance/Time
Traveled:
442nm/1:16
Distance/Time
To Go:
Arrived

Flight Plot

Page will automatically refresh every two minutes.

Flight plan parsing failed; only flown route is shown


Map Options




Map Legend


Flown Route
Filed Route
Departure Airport
Arrival Airport
Navaid (VOR, NDB)
Fix

Horizontal Profiles

Position Reports

Time Latitude Longitude Heading Altitude Ground
Speed
15-May-19 08:17 40.777609 -111.958411 90 4232ft 0kts
15-May-19 08:18 40.777609 -111.958411 90 4232ft 0kts
15-May-19 08:19 40.777609 -111.958411 90 4232ft 0kts
15-May-19 08:20 40.777609 -111.958411 90 4232ft 0kts
15-May-19 08:21 40.777609 -111.958411 90 4232ft 0kts
15-May-19 08:22 40.777609 -111.958411 90 4232ft 0kts
15-May-19 08:23 40.777609 -111.958405 89 4232ft 1kts
15-May-19 08:24 40.778907 -111.960043 7 4232ft 14kts
15-May-19 08:25 40.783352 -111.959916 359 4232ft 18kts
15-May-19 08:26 40.787717 -111.959912 4 4232ft 14kts
15-May-19 08:27 40.792981 -111.959939 1 4232ft 19kts
15-May-19 08:28 40.798716 -111.960088 311 4232ft 12kts
15-May-19 08:29 40.783919 -111.962135 177 4843ft 130kts
15-May-19 08:30 40.717395 -111.959617 178 8109ft 290kts
15-May-19 08:31 40.645801 -111.957752 179 10044ft 255kts
15-May-19 08:32 40.558666 -111.955048 179 10040ft 326kts
15-May-19 08:33 40.470833 -111.952301 179 10048ft 308kts
15-May-19 08:34 40.374881 -111.946138 178 13208ft 328kts
15-May-19 08:35 40.285691 -111.939930 180 17201ft 314kts
15-May-19 08:36 40.191412 -111.951426 189 21122ft 318kts
15-May-19 08:37 40.101167 -111.964882 188 23113ft 401kts
15-May-19 08:38 39.983176 -111.981945 188 24790ft 441kts
15-May-19 08:39 39.860103 -111.999860 188 27904ft 441kts
15-May-19 08:40 39.742044 -112.017082 189 32009ft 422kts
15-May-19 08:41 39.627652 -112.033738 190 37621ft 407kts
15-May-19 08:42 39.515473 -112.050016 190 37285ft 411kts
15-May-19 08:43 39.400085 -112.066547 189 37109ft 420kts
15-May-19 08:44 39.283818 -112.083040 190 37114ft 421kts
15-May-19 08:45 39.166902 -112.099571 189 37068ft 421kts
15-May-19 08:46 39.050400 -112.115993 189 37069ft 421kts
15-May-19 08:47 38.933915 -112.132360 189 37071ft 420kts
15-May-19 08:48 38.817916 -112.148605 189 37073ft 421kts
15-May-19 08:49 38.701202 -112.164896 189 37103ft 421kts
15-May-19 08:50 38.591738 -112.179856 189 37110ft 370kts
15-May-19 08:51 38.493857 -112.193399 190 37122ft 340kts
15-May-19 08:52 38.398584 -112.206862 190 37147ft 369kts
15-May-19 08:53 38.289600 -112.221950 189 37163ft 411kts
15-May-19 08:54 38.173785 -112.237856 189 37178ft 423kts
15-May-19 08:55 38.056126 -112.253977 189 37201ft 427kts
15-May-19 08:56 37.937710 -112.270155 189 37227ft 428kts
15-May-19 08:57 37.818970 -112.286325 189 37251ft 429kts
15-May-19 08:58 37.700168 -112.302454 189 37265ft 429kts
15-May-19 08:59 37.580680 -112.311573 185 37256ft 430kts
15-May-19 09:00 37.461080 -112.318079 186 37235ft 430kts
15-May-19 09:01 37.341675 -112.325202 186 37213ft 430kts
15-May-19 09:02 37.222178 -112.332425 186 37197ft 430kts
15-May-19 09:03 37.102883 -112.339635 186 37191ft 430kts
15-May-19 09:04 36.987992 -112.346562 186 37190ft 430kts
15-May-19 09:05 36.868355 -112.353754 186 37196ft 430kts
15-May-19 09:06 36.748824 -112.360928 187 37191ft 431kts
15-May-19 09:07 36.628930 -112.368101 186 37191ft 432kts
15-May-19 09:08 36.509667 -112.375213 187 37195ft 433kts
15-May-19 09:09 36.388931 -112.382390 187 37209ft 434kts
15-May-19 09:10 36.268334 -112.389534 187 37226ft 434kts
15-May-19 09:11 36.147173 -112.396693 187 37241ft 435kts
15-May-19 09:12 36.026697 -112.404883 188 37250ft 435kts
15-May-19 09:13 35.905368 -112.415960 188 37256ft 436kts
15-May-19 09:14 35.784675 -112.426578 188 37253ft 436kts
15-May-19 09:15 35.663580 -112.437126 188 37246ft 435kts
15-May-19 09:16 35.543297 -112.448445 189 33579ft 420kts
15-May-19 09:17 35.437792 -112.441328 173 29185ft 350kts
15-May-19 09:18 35.337404 -112.421481 174 29282ft 375kts
15-May-19 09:19 35.232962 -112.400963 174 29250ft 383kts
15-May-19 09:20 35.127349 -112.379006 173 29231ft 386kts
15-May-19 09:21 35.021509 -112.355923 173 27682ft 394kts
15-May-19 09:22 34.913615 -112.332550 173 25396ft 391kts
15-May-19 09:23 34.807693 -112.309439 173 23955ft 381kts
15-May-19 09:24 34.704510 -112.286724 172 22479ft 374kts
15-May-19 09:25 34.603139 -112.264481 172 20977ft 366kts
15-May-19 09:26 34.504052 -112.242793 172 19476ft 357kts
15-May-19 09:27 34.407423 -112.220633 169 19141ft 352kts
15-May-19 09:28 34.311626 -112.195305 170 19117ft 351kts
15-May-19 09:29 34.215960 -112.170505 170 18296ft 339kts
15-May-19 09:30 34.133004 -112.149079 169 14875ft 295kts
15-May-19 09:31 34.053908 -112.140904 186 13080ft 279kts
15-May-19 09:32 33.974749 -112.149566 185 11668ft 286kts
15-May-19 09:33 33.896154 -112.158612 187 9637ft 282kts
15-May-19 09:34 33.821421 -112.175247 189 8078ft 259kts
15-May-19 09:35 33.750976 -112.190358 189 8030ft 257kts
15-May-19 09:36 33.681573 -112.205033 189 6919ft 250kts
15-May-19 09:37 33.616870 -112.218685 189 6070ft 233kts
15-May-19 09:38 33.553690 -112.232136 189 5916ft 233kts
15-May-19 09:39 33.489815 -112.245891 189 4407ft 229kts
15-May-19 09:40 33.434663 -112.225333 133 4021ft 203kts
15-May-19 09:41 33.429171 -112.160404 86 3279ft 199kts
15-May-19 09:42 33.428791 -112.101646 90 2312ft 158kts
15-May-19 09:43 33.428841 -112.054164 89 1556ft 122kts
15-May-19 09:44 33.428772 -112.016596 89 1140ft 57kts
15-May-19 09:45 33.428119 -112.010793 179 1140ft 10kts
15-May-19 09:46 33.427756 -112.014406 268 1140ft 10kts
15-May-19 09:47 33.427756 -112.018794 270 1140ft 22kts
15-May-19 09:48 33.427099 -112.024251 156 1140ft 11kts
15-May-19 09:49 33.426323 -112.023886 162 1140ft 0kts
15-May-19 09:50 33.426321 -112.023885 162 1140ft 0kts

Navigation Log

Ident Type
Flight plan parsing failed, navigation log unavailable